Time;durP1;ratioP1;P1;durP2;ratioP2;P2;SDS_P1;SDS_P2;PMS_P1;PMS_P2;Temp;Humidity;BMP_temperature;BMP_pressure;BME280_temperature;BME280_humidity;BME280_pressure;Samples;Min_cycle;Max_cycle;Signal;HPM_P1;HPM_P2
2021/10/19 00:01:26;;;;;;;13.83;6.53;;;;;;;10.43;100.00;-19438.69;5071023;28;20032;-71
2021/10/19 00:03:51;;;;;;;13.17;6.07;;;;;;;10.39;100.00;-19437.63;5077800;28;20339;-71
2021/10/19 00:06:17;;;;;;;14.03;6.60;;;;;;;10.36;100.00;-19436.72;5069276;28;20032;-71
2021/10/19 00:08:42;;;;;;;14.80;6.70;;;;;;;10.31;100.00;-19435.38;5078539;28;20031;-71
2021/10/19 00:11:08;;;;;;;16.50;5.80;;;;;;;10.28;100.00;-19434.72;5062939;28;20461;-71
2021/10/19 00:13:36;;;;;;;15.27;5.93;;;;;;;10.34;100.00;-19436.19;5080524;28;20040;-71
2021/10/19 00:16:02;;;;;;;14.97;6.27;;;;;;;10.37;100.00;-19437.09;5074113;28;20033;-71
2021/10/19 00:18:28;;;;;;;14.63;6.33;;;;;;;10.52;100.00;-19440.91;5076516;28;20025;-71
2021/10/19 00:20:53;;;;;;;14.80;6.53;;;;;;;10.52;100.00;-19440.91;5070313;28;20484;-71
2021/10/19 00:23:19;;;;;;;13.03;6.40;;;;;;;10.53;100.00;-19441.31;5072534;28;20071;-71
2021/10/19 00:25:45;;;;;;;15.37;6.77;;;;;;;10.51;100.00;-19440.66;5067838;28;20492;-71
2021/10/19 00:28:10;;;;;;;14.10;6.57;;;;;;;10.47;100.00;-19439.59;5081395;28;20024;-71
2021/10/19 00:30:36;;;;;;;14.37;6.40;;;;;;;10.45;100.00;-19439.06;5070889;28;20037;-71
2021/10/19 00:33:02;;;;;;;14.30;6.67;;;;;;;10.45;100.00;-19439.06;5081961;28;20389;-71
2021/10/19 00:35:28;;;;;;;14.60;6.93;;;;;;;10.48;100.00;-19440.00;5074281;28;20036;-71
2021/10/19 00:37:54;;;;;;;17.80;7.30;;;;;;;10.46;100.00;-19439.47;5080338;28;20059;-71
2021/10/19 00:40:19;;;;;;;13.80;6.97;;;;;;;10.40;100.00;-19437.88;5070973;28;20500;-71
2021/10/19 00:42:45;;;;;;;14.77;6.30;;;;;;;10.37;100.00;-19437.09;5081339;28;20016;-71
2021/10/19 00:45:11;;;;;;;16.17;7.00;;;;;;;10.34;100.00;-19436.31;5072057;28;20525;-71
2021/10/19 00:47:46;;;;;;;16.53;7.47;;;;;;;10.31;100.00;-19435.38;5081115;28;20020;-71
2021/10/19 00:50:11;;;;;;;17.00;7.27;;;;;;;10.35;100.00;-19436.56;5074095;28;20041;-71
2021/10/19 00:52:37;;;;;;;17.20;7.53;;;;;;;10.36;100.00;-19436.72;5081979;28;20294;-71
2021/10/19 00:55:03;;;;;;;15.87;7.43;;;;;;;10.36;100.00;-19436.84;5067928;28;20056;-71
2021/10/19 00:57:29;;;;;;;16.83;7.17;;;;;;;10.38;100.00;-19437.38;5081240;28;20034;-71
2021/10/19 00:59:55;;;;;;;14.60;7.00;;;;;;;10.37;100.00;-19437.09;5071534;28;20082;-71
2021/10/19 01:02:20;;;;;;;16.27;6.93;;;;;;;10.34;100.00;-19436.31;5122679;22;20437;-71
2021/10/19 01:04:46;;;;;;;17.37;8.10;;;;;;;10.33;100.00;-19435.91;5108263;27;20035;-72
2021/10/19 01:07:15;;;;;;;17.80;7.40;;;;;;;10.32;100.00;-19435.66;5114438;27;20252;-72
2021/10/19 01:09:40;;;;;;;16.23;7.30;;;;;;;10.31;100.00;-19435.38;5111235;27;20031;-72
2021/10/19 01:12:09;;;;;;;18.17;7.23;;;;;;;10.31;100.00;-19435.53;5119973;27;20664;-72
2021/10/19 01:14:35;;;;;;;17.50;7.60;;;;;;;10.30;100.00;-19435.25;5118482;27;20231;-72
2021/10/19 01:17:01;;;;;;;18.50;7.43;;;;;;;10.33;100.00;-19436.03;5110682;27;20106;-72
2021/10/19 01:19:27;;;;;;;15.83;7.33;;;;;;;10.34;100.00;-19436.19;5115537;27;20142;-72
2021/10/19 01:21:55;;;;;;;21.27;7.67;;;;;;;10.36;100.00;-19436.84;5111331;27;20027;-72
2021/10/19 01:24:21;;;;;;;16.67;7.67;;;;;;;10.35;100.00;-19436.56;5107590;27;20024;-72
2021/10/19 01:26:46;;;;;;;17.27;7.50;;;;;;;10.39;100.00;-19437.63;5109532;27;20027;-72
2021/10/19 01:29:15;;;;;;;15.43;6.77;;;;;;;10.38;100.00;-19437.38;5114075;27;20039;-72
2021/10/19 01:31:53;;;;;;;14.63;7.13;;;;;;;10.44;100.00;-19438.94;5118328;27;20287;-72
2021/10/19 01:34:18;;;;;;;16.87;7.47;;;;;;;10.41;100.00;-19438.03;5112130;27;20270;-72
2021/10/19 01:36:45;;;;;;;14.37;7.00;;;;;;;10.37;100.00;-19437.09;5115277;27;20031;-72
2021/10/19 01:39:11;;;;;;;16.80;8.10;;;;;;;10.36;100.00;-19436.84;5115427;27;20402;-72
2021/10/19 01:41:38;;;;;;;15.97;7.13;;;;;;;10.35;100.00;-19436.44;5118512;27;20525;-72
2021/10/19 01:44:04;;;;;;;17.47;7.77;;;;;;;10.33;100.00;-19436.03;5116539;27;20394;-72
2021/10/19 01:46:29;;;;;;;16.47;7.03;;;;;;;10.32;100.00;-19435.66;5110278;27;20027;-72
2021/10/19 01:48:56;;;;;;;19.87;7.63;;;;;;;10.35;100.00;-19436.56;5112415;27;20196;-72
2021/10/19 01:51:22;;;;;;;18.03;8.13;;;;;;;10.37;100.00;-19437.09;5111059;27;20035;-72
2021/10/19 01:53:48;;;;;;;15.10;7.23;;;;;;;10.36;100.00;-19436.84;5109163;27;20042;-72
2021/10/19 01:56:13;;;;;;;15.07;7.00;;;;;;;10.36;100.00;-19436.84;5109925;27;20043;-72
2021/10/19 01:58:39;;;;;;;16.77;7.73;;;;;;;10.34;100.00;-19436.31;5108642;27;20058;-72
2021/10/19 02:01:04;;;;;;;16.77;7.90;;;;;;;10.28;100.00;-19434.72;5096817;27;20097;-73
2021/10/19 02:03:30;;;;;;;18.03;8.03;;;;;;;10.29;100.00;-19435.00;5079835;28;20562;-72
2021/10/19 02:05:55;;;;;;;19.90;7.47;;;;;;;10.27;100.00;-19434.47;5093855;27;20503;-72
2021/10/19 02:08:22;;;;;;;19.07;8.20;;;;;;;10.23;100.00;-19433.53;5087812;27;20024;-72
2021/10/19 02:10:47;;;;;;;20.57;7.87;;;;;;;10.25;100.00;-19433.94;5080779;28;20369;-71
2021/10/19 02:13:13;;;;;;;16.37;7.47;;;;;;;10.27;100.00;-19434.47;5080038;28;20038;-72
2021/10/19 02:15:39;;;;;;;15.60;7.40;;;;;;;10.32;100.00;-19435.78;5094723;27;20269;-72
2021/10/19 02:18:06;;;;;;;16.73;7.57;;;;;;;10.32;100.00;-19435.78;5082514;28;20036;-72
2021/10/19 02:20:32;;;;;;;16.43;7.30;;;;;;;10.34;100.00;-19436.31;5098578;27;20023;-72
2021/10/19 02:22:57;;;;;;;15.10;7.53;;;;;;;10.39;100.00;-19437.63;5096941;27;20092;-72
2021/10/19 02:25:23;;;;;;;18.90;7.60;;;;;;;10.43;100.00;-19438.56;5094325;27;20055;-72
2021/10/19 02:27:49;;;;;;;16.00;7.03;;;;;;;10.48;100.00;-19439.88;5083366;27;20162;-72
2021/10/19 02:30:16;;;;;;;16.80;7.60;;;;;;;10.53;100.00;-19441.19;5085579;28;20472;-72
2021/10/19 02:32:43;;;;;;;18.33;8.00;;;;;;;10.59;100.00;-19442.75;5093899;27;20063;-72
2021/10/19 02:35:11;;;;;;;17.00;7.57;;;;;;;10.61;100.00;-19443.16;5093799;27;20157;-72
2021/10/19 02:37:37;;;;;;;17.50;8.00;;;;;;;10.67;100.00;-19444.72;5093753;27;20450;-73
2021/10/19 02:40:04;;;;;;;15.43;7.83;;;;;;;10.69;100.00;-19445.38;5102373;27;20027;-72
2021/10/19 02:42:30;;;;;;;18.93;8.30;;;;;;;10.76;100.00;-19447.09;5090335;27;20201;-72
2021/10/19 02:44:55;;;;;;;19.83;8.23;;;;;;;10.77;100.00;-19447.50;5088257;27;20035;-72
2021/10/19 02:47:21;;;;;;;20.20;7.80;;;;;;;10.81;100.00;-19448.41;5093170;28;20380;-72
2021/10/19 02:49:46;;;;;;;15.13;7.07;;;;;;;10.82;100.00;-19448.69;5089116;27;20092;-72
2021/10/19 02:52:12;;;;;;;16.63;7.63;;;;;;;10.84;100.00;-19449.22;5091283;27;20044;-72
2021/10/19 02:54:37;;;;;;;20.40;8.23;;;;;;;10.83;100.00;-19448.94;5082687;28;20174;-72
2021/10/19 02:57:03;;;;;;;20.50;7.77;;;;;;;10.83;100.00;-19448.94;5078815;28;20032;-72
2021/10/19 02:59:29;;;;;;;17.23;7.60;;;;;;;10.85;100.00;-19449.47;5089180;28;20019;-72
2021/10/19 03:01:54;;;;;;;19.97;8.00;;;;;;;10.86;100.00;-19449.72;5091649;28;20055;-72
2021/10/19 03:04:20;;;;;;;18.07;7.63;;;;;;;10.88;100.00;-19450.25;5091209;28;20610;-72
2021/10/19 03:06:45;;;;;;;15.33;6.93;;;;;;;10.91;100.00;-19451.06;5087886;28;20034;-72
2021/10/19 03:09:11;;;;;;;16.50;7.60;;;;;;;10.93;100.00;-19451.44;5098126;27;20055;-72
2021/10/19 03:11:36;;;;;;;17.67;8.37;;;;;;;10.96;100.00;-19452.38;5106330;27;20107;-72
2021/10/19 03:14:02;;;;;;;16.53;7.27;;;;;;;10.98;100.00;-19452.75;5084846;28;20027;-72
2021/10/19 03:16:27;;;;;;;17.57;8.50;;;;;;;11.00;100.00;-19453.41;5095253;27;20453;-72
2021/10/19 03:18:53;;;;;;;18.50;7.43;;;;;;;11.01;100.00;-19453.69;5098062;28;20114;-72
2021/10/19 03:21:18;;;;;;;16.30;7.63;;;;;;;11.03;100.00;-19454.22;5078897;28;20030;-72
2021/10/19 03:23:44;;;;;;;18.23;8.37;;;;;;;11.04;100.00;-19454.47;5080098;28;20128;-72
2021/10/19 03:26:12;;;;;;;18.83;8.03;;;;;;;11.05;100.00;-19454.72;5092716;28;20027;-72
2021/10/19 03:28:38;;;;;;;17.43;7.93;;;;;;;11.09;100.00;-19455.66;5082760;28;20059;-72
2021/10/19 03:31:04;;;;;;;18.13;7.70;;;;;;;11.07;100.00;-19455.25;5092721;28;20387;-72
2021/10/19 03:33:30;;;;;;;20.17;8.10;;;;;;;11.06;100.00;-19454.88;5082577;28;20127;-72
2021/10/19 03:35:55;;;;;;;16.83;7.73;;;;;;;11.07;100.00;-19455.25;5115462;27;20047;-71
2021/10/19 03:38:21;;;;;;;18.83;7.77;;;;;;;11.08;100.00;-19455.53;5099297;27;20110;-72
2021/10/19 03:40:47;;;;;;;18.37;7.83;;;;;;;11.11;100.00;-19456.31;5101039;27;20024;-72
2021/10/19 03:43:12;;;;;;;18.30;7.37;;;;;;;11.10;100.00;-19456.03;5082047;28;20317;-71
2021/10/19 03:45:38;;;;;;;16.47;7.50;;;;;;;11.13;100.00;-19456.84;5085846;27;20107;-72
2021/10/19 03:48:03;;;;;;;17.50;8.50;;;;;;;11.20;100.00;-19458.41;5090888;27;20027;-72
2021/10/19 03:50:29;;;;;;;17.10;7.33;;;;;;;11.24;100.00;-19459.59;5093870;27;20019;-72
2021/10/19 03:52:57;;;;;;;17.40;8.03;;;;;;;11.27;100.00;-19460.25;5090460;27;20039;-72
2021/10/19 03:55:23;;;;;;;18.83;8.17;;;;;;;11.30;100.00;-19461.03;5099584;27;20034;-72
2021/10/19 03:57:49;;;;;;;17.57;8.10;;;;;;;11.31;100.00;-19461.44;5100655;27;20252;-72
2021/10/19 04:00:15;;;;;;;17.30;7.70;;;;;;;11.32;100.00;-19461.56;5098502;27;20032;-72
2021/10/19 04:02:41;;;;;;;16.60;8.00;;;;;;;11.32;100.00;-19461.56;5100522;28;20530;-72
2021/10/19 04:05:07;;;;;;;17.50;8.20;;;;;;;11.34;100.00;-19462.09;5100816;27;20404;-72
2021/10/19 04:07:33;;;;;;;19.00;8.00;;;;;;;11.34;100.00;-19462.09;5108452;27;20413;-72
2021/10/19 04:09:58;;;;;;;16.07;7.43;;;;;;;11.30;100.00;-19461.16;5087525;27;20338;-72
2021/10/19 04:12:23;;;;;;;17.30;7.73;;;;;;;11.34;100.00;-19462.09;5087029;27;20073;-71
2021/10/19 04:14:49;;;;;;;18.47;8.03;;;;;;;11.36;100.00;-19462.63;5084225;28;20027;-72
2021/10/19 04:17:16;;;;;;;17.80;7.63;;;;;;;11.34;100.00;-19462.22;5092142;27;20174;-72
2021/10/19 04:19:42;;;;;;;14.33;7.47;;;;;;;11.29;100.00;-19460.78;5100362;27;20461;-72
2021/10/19 04:22:07;;;;;;;16.57;7.57;;;;;;;11.27;100.00;-19460.25;5095608;27;20271;-72
2021/10/19 04:24:33;;;;;;;16.10;7.50;;;;;;;11.25;100.00;-19459.72;5098550;27;20277;-72
2021/10/19 04:26:58;;;;;;;17.93;7.93;;;;;;;11.20;100.00;-19458.53;5099399;27;20019;-72
2021/10/19 04:29:24;;;;;;;16.10;7.90;;;;;;;11.13;100.00;-19456.84;5085481;28;20059;-72
2021/10/19 04:31:49;;;;;;;16.80;8.47;;;;;;;11.10;100.00;-19455.91;5097095;27;20034;-72
2021/10/19 04:34:15;;;;;;;22.27;8.00;;;;;;;11.09;100.00;-19455.78;5106161;27;20177;-71
2021/10/19 04:36:41;;;;;;;20.47;8.53;;;;;;;11.07;100.00;-19455.25;5105038;27;20027;-72
2021/10/19 04:39:06;;;;;;;17.53;7.93;;;;;;;11.05;100.00;-19454.59;5096535;27;20034;-72
2021/10/19 04:41:32;;;;;;;18.23;8.40;;;;;;;11.08;100.00;-19455.38;5100999;27;20716;-72
2021/10/19 04:43:57;;;;;;;17.43;8.13;;;;;;;11.10;100.00;-19456.03;5106210;27;20085;-71
2021/10/19 04:46:23;;;;;;;16.80;8.13;;;;;;;11.11;100.00;-19456.31;5106341;27;20035;-72
2021/10/19 04:48:48;;;;;;;19.93;8.83;;;;;;;11.12;100.00;-19456.56;5104541;27;20375;-72
2021/10/19 04:51:13;;;;;;;26.57;8.10;;;;;;;11.11;100.00;-19456.31;5104072;27;20100;-72
2021/10/19 04:53:39;;;;;;;20.60;8.57;;;;;;;11.10;100.00;-19456.03;5081978;28;20491;-72
2021/10/19 04:56:10;;;;;;;18.90;8.13;;;;;;;11.08;100.00;-19455.53;5083774;28;20072;-71
2021/10/19 04:58:35;;;;;;;20.43;8.43;;;;;;;11.06;100.00;-19455.00;5081048;28;20028;-72
2021/10/19 05:01:01;;;;;;;18.20;8.43;;;;;;;11.05;100.00;-19454.72;5082998;28;20075;-72
2021/10/19 05:03:26;;;;;;;19.23;7.87;;;;;;;10.97;100.00;-19452.63;5098093;28;20023;-72
2021/10/19 05:05:52;;;;;;;19.20;8.17;;;;;;;10.93;100.00;-19451.44;5083152;28;20024;-72
2021/10/19 05:08:18;;;;;;;18.07;8.07;;;;;;;10.88;100.00;-19450.25;5080527;28;20379;-72
2021/10/19 05:10:43;;;;;;;17.63;8.87;;;;;;;10.92;100.00;-19451.31;5081257;28;20085;-72
2021/10/19 05:13:10;;;;;;;22.30;8.73;;;;;;;10.90;100.00;-19450.66;5084072;28;20258;-71
2021/10/19 05:15:35;;;;;;;19.90;8.07;;;;;;;10.86;100.00;-19449.88;5094405;28;20176;-71
2021/10/19 05:18:01;;;;;;;19.70;8.90;;;;;;;10.86;100.00;-19449.72;5090037;28;20541;-71
2021/10/19 05:20:26;;;;;;;17.47;7.80;;;;;;;10.78;100.00;-19447.75;5088341;28;20325;-71
2021/10/19 05:22:52;;;;;;;16.40;7.80;;;;;;;10.79;100.00;-19447.88;5100665;28;20023;-72
2021/10/19 05:25:17;;;;;;;20.13;8.03;;;;;;;10.83;100.00;-19448.94;5100307;28;20083;-71
2021/10/19 05:27:45;;;;;;;16.40;7.93;;;;;;;10.82;100.00;-19448.81;5100287;28;20031;-72
2021/10/19 05:30:11;;;;;;;19.87;8.07;;;;;;;10.77;100.00;-19447.38;5087648;28;20035;-72
2021/10/19 05:32:37;;;;;;;19.70;8.30;;;;;;;10.76;100.00;-19447.09;5080317;28;20035;-71
2021/10/19 05:35:03;;;;;;;17.03;8.50;;;;;;;10.72;100.00;-19446.03;5092530;28;20019;-71
2021/10/19 05:37:28;;;;;;;21.43;8.27;;;;;;;10.69;100.00;-19445.38;5080330;28;20031;-71
2021/10/19 05:39:54;;;;;;;18.20;8.53;;;;;;;10.69;100.00;-19445.38;5092073;28;20031;-72
2021/10/19 05:42:19;;;;;;;19.03;8.73;;;;;;;10.73;100.00;-19446.44;5080894;28;20097;-72
2021/10/19 05:44:45;;;;;;;19.83;8.70;;;;;;;10.80;100.00;-19448.16;5090585;28;20074;-72
2021/10/19 05:47:10;;;;;;;18.73;8.47;;;;;;;10.85;100.00;-19449.47;5086879;28;20027;-72
2021/10/19 05:49:36;;;;;;;18.03;8.07;;;;;;;10.92;100.00;-19451.19;5099731;28;20592;-71
2021/10/19 05:52:03;;;;;;;21.93;8.00;;;;;;;11.00;100.00;-19453.28;5083509;28;20047;-72
2021/10/19 05:54:28;;;;;;;19.43;8.40;;;;;;;11.00;100.00;-19453.41;5088237;28;20027;-71
2021/10/19 05:56:55;;;;;;;15.20;7.63;;;;;;;11.01;100.00;-19453.69;5080643;28;20482;-71
2021/10/19 05:59:21;;;;;;;17.57;8.17;;;;;;;11.07;100.00;-19455.13;5086629;28;20352;-72
2021/10/19 06:01:47;;;;;;;16.50;7.90;;;;;;;11.12;100.00;-19456.56;5090407;28;20165;-72
2021/10/19 06:04:13;;;;;;;20.70;7.77;;;;;;;11.17;100.00;-19457.75;5085588;28;20064;-72
2021/10/19 06:06:38;;;;;;;19.03;8.27;;;;;;;11.21;100.00;-19458.69;5080625;28;20103;-72
2021/10/19 06:09:04;;;;;;;19.10;8.37;;;;;;;11.25;100.00;-19459.72;5084061;28;20665;-71
2021/10/19 06:11:30;;;;;;;17.80;7.73;;;;;;;11.30;100.00;-19461.03;5080571;28;20028;-72
2021/10/19 06:13:55;;;;;;;17.80;8.23;;;;;;;11.34;100.00;-19462.09;5082672;28;20425;-72
2021/10/19 06:16:21;;;;;;;18.37;7.83;;;;;;;11.40;100.00;-19463.66;5080861;28;20111;-72
2021/10/19 06:18:46;;;;;;;18.27;8.33;;;;;;;11.41;100.00;-19464.06;5081316;28;20040;-72
2021/10/19 06:21:12;;;;;;;18.97;8.07;;;;;;;11.44;100.00;-19464.72;5098322;28;20311;-72
2021/10/19 06:23:38;;;;;;;15.87;7.93;;;;;;;11.49;100.00;-19465.91;5099336;28;20545;-72
2021/10/19 06:26:04;;;;;;;18.00;8.97;;;;;;;11.55;100.00;-19467.47;5099439;28;20151;-72
2021/10/19 06:28:30;;;;;;;18.23;8.40;;;;;;;11.59;100.00;-19468.53;5099458;28;20388;-72
2021/10/19 06:30:55;;;;;;;15.67;7.73;;;;;;;11.62;100.00;-19469.44;5079456;28;20036;-72
2021/10/19 06:33:21;;;;;;;17.50;7.70;;;;;;;11.69;100.00;-19471.28;5082423;28;20091;-72
2021/10/19 06:35:47;;;;;;;17.77;8.00;;;;;;;11.72;100.00;-19472.09;5093314;28;20115;-72
2021/10/19 06:38:12;;;;;;;18.10;8.40;;;;;;;11.79;100.00;-19473.78;5079124;28;20028;-72
2021/10/19 06:40:38;;;;;;;15.53;7.93;;;;;;;11.89;100.00;-19476.28;5090686;28;20070;-72
2021/10/19 06:43:05;;;;;;;17.47;7.83;;;;;;;12.00;100.00;-19479.19;5078926;28;20051;-72
2021/10/19 06:45:31;;;;;;;15.40;8.30;;;;;;;12.08;100.00;-19481.28;5090041;28;20516;-72
2021/10/19 06:47:57;;;;;;;18.93;8.30;;;;;;;12.19;100.00;-19484.16;5079040;28;20256;-72
2021/10/19 06:50:22;;;;;;;17.20;8.00;;;;;;;12.29;100.00;-19486.66;5088011;28;20353;-72
2021/10/19 06:52:48;;;;;;;18.70;7.77;;;;;;;12.40;100.00;-19489.44;5078774;28;20020;-72
2021/10/19 06:55:13;;;;;;;14.70;7.23;;;;;;;12.49;100.00;-19491.78;5087897;28;20561;-72
2021/10/19 06:57:44;;;;;;;14.77;7.13;;;;;;;12.62;100.00;-19495.19;5078835;28;20035;-72
2021/10/19 07:00:12;;;;;;;16.27;7.23;;;;;;;12.72;100.00;-19497.81;5086148;28;20024;-72
2021/10/19 07:02:38;;;;;;;14.53;6.60;;;;;;;12.83;100.00;-19500.59;5078714;28;20059;-72
2021/10/19 07:05:04;;;;;;;13.63;6.87;;;;;;;12.84;100.00;-19500.97;5091935;28;20495;-71
2021/10/19 07:07:30;;;;;;;14.90;6.80;;;;;;;12.87;100.00;-19501.63;5078621;28;20114;-72
2021/10/19 07:09:55;;;;;;;13.97;7.40;;;;;;;13.00;100.00;-19505.03;5084120;28;20539;-72
2021/10/19 07:12:21;;;;;;;16.93;6.70;;;;;;;13.07;100.00;-19506.88;5077684;28;20278;-72
2021/10/19 07:14:48;;;;;;;14.43;6.77;;;;;;;13.08;100.00;-19507.00;5083349;28;20084;-72
2021/10/19 07:17:14;;;;;;;13.33;6.60;;;;;;;13.11;100.00;-19507.81;5078475;28;20449;-72
2021/10/19 07:19:40;;;;;;;14.40;7.00;;;;;;;13.12;100.00;-19508.19;5086358;28;20118;-71
2021/10/19 07:22:06;;;;;;;12.90;6.50;;;;;;;13.14;100.00;-19508.59;5098545;28;20016;-71
2021/10/19 07:24:31;;;;;;;14.50;7.23;;;;;;;13.17;100.00;-19509.50;5098365;28;20310;-72
2021/10/19 07:26:57;;;;;;;13.20;6.10;;;;;;;13.19;100.00;-19509.91;5098532;28;20279;-72
2021/10/19 07:29:23;;;;;;;13.47;6.50;;;;;;;13.19;100.00;-19509.91;5092096;28;20028;-72
2021/10/19 07:31:48;;;;;;;12.70;6.50;;;;;;;13.23;100.00;-19510.81;5078040;28;20103;-72
2021/10/19 07:34:14;;;;;;;14.17;6.60;;;;;;;13.23;100.00;-19510.94;5084187;28;20073;-72
2021/10/19 07:36:40;;;;;;;15.00;6.47;;;;;;;13.27;100.00;-19511.88;5085957;28;20494;-72
2021/10/19 07:39:06;;;;;;;13.20;7.17;;;;;;;13.30;100.00;-19512.66;5082822;28;20314;-72
2021/10/19 07:41:31;;;;;;;13.33;6.50;;;;;;;13.27;100.00;-19512.00;5086473;28;20413;-72
2021/10/19 07:43:57;;;;;;;16.00;6.50;;;;;;;13.28;100.00;-19512.25;5081651;28;20467;-72
2021/10/19 07:46:22;;;;;;;13.70;6.23;;;;;;;13.28;100.00;-19512.25;5086644;28;20024;-72
2021/10/19 07:48:48;;;;;;;13.97;6.80;;;;;;;13.32;100.00;-19513.19;5079341;28;20145;-73
2021/10/19 07:51:13;;;;;;;12.93;6.97;;;;;;;13.33;100.00;-19513.56;5081042;28;20028;-72
2021/10/19 07:53:39;;;;;;;13.83;7.00;;;;;;;13.27;100.00;-19512.00;5082442;28;20479;-72
2021/10/19 07:56:04;;;;;;;14.60;6.50;;;;;;;13.24;100.00;-19511.22;5098672;28;20015;-71
2021/10/19 07:58:30;;;;;;;13.87;7.03;;;;;;;13.18;100.00;-19509.63;5078977;28;20274;-71
2021/10/19 08:00:55;;;;;;;13.60;6.80;;;;;;;13.14;100.00;-19508.59;5086757;28;20060;-72
2021/10/19 08:03:21;;;;;;;14.80;6.83;;;;;;;13.08;100.00;-19507.00;5079583;28;20508;-72
2021/10/19 08:05:46;;;;;;;14.73;7.00;;;;;;;13.07;100.00;-19506.75;5086829;28;20028;-72
2021/10/19 08:08:14;;;;;;;13.47;6.83;;;;;;;13.07;100.00;-19506.88;5077845;28;20300;-72
2021/10/19 08:10:42;;;;;;;16.57;7.23;;;;;;;13.06;100.00;-19506.50;5084305;28;20024;-72
2021/10/19 08:13:09;;;;;;;14.10;7.30;;;;;;;13.02;100.00;-19505.56;5087623;28;20084;-72
2021/10/19 08:15:35;;;;;;;14.97;7.37;;;;;;;12.98;100.00;-19504.38;5086325;28;20032;-72
2021/10/19 08:18:01;;;;;;;16.30;7.17;;;;;;;12.95;100.00;-19503.59;5077841;28;20058;-72
2021/10/19 08:20:27;;;;;;;15.00;7.53;;;;;;;12.96;100.00;-19503.88;5093489;28;20306;-72
2021/10/19 08:22:52;;;;;;;15.97;7.60;;;;;;;12.95;100.00;-19503.59;5097838;28;20027;-72
2021/10/19 08:25:18;;;;;;;19.20;8.20;;;;;;;12.99;100.00;-19504.78;5101679;28;20200;-72
2021/10/19 08:27:45;;;;;;;20.30;8.40;;;;;;;13.07;100.00;-19506.75;5101795;28;20050;-73
2021/10/19 08:30:13;;;;;;;17.40;7.90;;;;;;;13.15;100.00;-19508.84;5088328;28;20024;-72
2021/10/19 08:32:39;;;;;;;16.30;7.40;;;;;;;13.30;100.00;-19512.78;5081419;28;20103;-72
2021/10/19 08:35:06;;;;;;;17.30;8.20;;;;;;;13.45;100.00;-19516.72;5094232;28;20636;-72
2021/10/19 08:37:32;;;;;;;17.97;8.03;;;;;;;13.64;100.00;-19521.44;5081429;28;20380;-72
2021/10/19 08:40:02;;;;;;;17.90;7.47;;;;;;;13.76;100.00;-19524.59;5092851;28;20034;-72
2021/10/19 08:42:28;;;;;;;14.47;7.77;;;;;;;13.86;100.00;-19527.22;5081330;28;20019;-72
2021/10/19 08:44:54;;;;;;;13.50;6.70;;;;;;;13.84;100.00;-19526.69;5091442;28;20032;-72
2021/10/19 08:47:20;;;;;;;15.57;7.80;;;;;;;13.81;100.00;-19525.91;5081247;28;20069;-72
2021/10/19 08:49:46;;;;;;;15.67;6.70;;;;;;;13.80;100.00;-19525.63;5090713;28;20392;-72
2021/10/19 08:52:11;;;;;;;15.20;7.53;;;;;;;13.81;100.00;-19525.91;5081104;28;20487;-72
2021/10/19 08:54:37;;;;;;;14.73;7.23;;;;;;;13.90;100.00;-19528.25;5089185;28;20028;-72
2021/10/19 08:57:10;;;;;;;14.23;7.90;;;;;;;14.02;100.00;-19531.28;5088166;28;20020;-72
2021/10/19 08:59:42;;;;;;;15.63;8.20;;;;;;;13.93;100.00;-19529.06;5099735;28;20035;-72
2021/10/19 09:02:07;;;;;;;15.02;7.70;;;;;;;13.97;100.00;-19530.09;5080706;28;20040;-73
2021/10/19 09:04:33;;;;;;;12.43;6.90;;;;;;;13.94;100.00;-19529.31;5086556;28;20163;-72
2021/10/19 09:06:59;;;;;;;16.27;7.57;;;;;;;13.90;100.00;-19528.25;5080973;28;20024;-72
2021/10/19 09:09:26;;;;;;;15.50;7.53;;;;;;;13.88;100.00;-19527.75;5086012;28;20027;-72
2021/10/19 09:11:54;;;;;;;14.73;7.70;;;;;;;13.82;100.00;-19526.16;5080748;28;20511;-73
2021/10/19 09:14:29;;;;;;;16.37;7.30;;;;;;;13.77;100.00;-19524.84;5084447;28;20027;-72
2021/10/19 09:16:56;;;;;;;14.93;7.63;;;;;;;13.68;100.00;-19522.50;5080932;28;20087;-72
2021/10/19 09:19:23;;;;;;;15.73;7.93;;;;;;;13.60;100.00;-19520.41;5085537;28;20511;-72
2021/10/19 09:21:54;;;;;;;16.77;7.93;;;;;;;13.60;100.00;-19520.41;5100788;28;20015;-72
2021/10/19 09:24:25;;;;;;;14.90;8.03;;;;;;;13.68;100.00;-19522.50;5100339;28;20031;-72
2021/10/19 09:26:59;;;;;;;14.38;8.18;;;;;;;13.65;100.00;-19521.84;5100516;28;20444;-72
2021/10/19 09:29:27;;;;;;;15.40;7.60;;;;;;;13.61;100.00;-19520.66;5093872;28;20078;-72
2021/10/19 09:31:58;;;;;;;17.33;7.83;;;;;;;13.64;100.00;-19521.44;5080346;28;20031;-72
2021/10/19 09:34:27;;;;;;;17.87;7.93;;;;;;;13.73;100.00;-19523.81;5087165;28;20625;-72
2021/10/19 09:36:53;;;;;;;15.63;8.07;;;;;;;13.87;100.00;-19527.47;5085426;28;20349;-72
2021/10/19 09:39:39;;;;;;;15.00;8.20;;;;;;;14.00;100.00;-19530.88;5087189;28;20114;-72
2021/10/19 09:42:28;;;;;;;15.70;8.23;;;;;;;14.17;100.00;-19535.19;5082952;28;20261;-73
2021/10/19 09:44:59;;;;;;;16.47;7.90;;;;;;;14.26;100.00;-19537.56;5082149;28;20039;-72
2021/10/19 09:47:26;;;;;;;13.53;7.67;;;;;;;14.11;100.00;-19533.50;5097461;28;20027;-72
2021/10/19 09:49:56;;;;;;;14.67;8.10;;;;;;;14.20;100.00;-19535.88;5099077;28;20039;-72
2021/10/19 09:52:22;;;;;;;15.03;8.03;;;;;;;14.17;100.00;-19535.06;5080134;28;20039;-72
2021/10/19 09:54:53;;;;;;;14.97;7.37;;;;;;;14.19;100.00;-19535.59;5088967;28;20608;-72
2021/10/19 09:57:19;;;;;;;12.73;6.60;;;;;;;14.21;100.00;-19536.25;5079262;28;20024;-72
2021/10/19 09:59:45;;;;;;;15.03;7.77;;;;;;;14.27;100.00;-19537.81;5087720;28;20055;-73
2021/10/19 10:02:15;;;;;;;16.00;7.70;;;;;;;14.28;100.00;-19537.97;5087450;28;20507;-72
2021/10/19 10:04:43;;;;;;;12.50;7.07;;;;;;;14.31;100.00;-19538.75;5090529;28;20050;-72
2021/10/19 10:07:12;;;;;;;13.67;7.50;;;;;;;14.29;100.00;-19538.22;5079476;28;20024;-72
2021/10/19 10:09:38;;;;;;;12.90;7.17;;;;;;;14.31;100.00;-19538.75;5085988;28;20604;-73
2021/10/19 10:12:07;;;;;;;17.47;8.07;;;;;;;14.31;100.00;-19538.88;5079742;28;20270;-73
2021/10/19 10:14:46;;;;;;;14.90;7.70;;;;;;;14.35;100.00;-19539.78;5084212;28;20028;-72
2021/10/19 10:17:13;;;;;;;13.93;7.57;;;;;;;14.44;100.00;-19542.16;5078979;28;20288;-72
2021/10/19 10:19:39;;;;;;;16.07;8.23;;;;;;;14.49;100.00;-19543.47;5088098;28;20035;-72
2021/10/19 10:22:28;;;;;;;14.73;7.63;;;;;;;14.58;100.00;-19545.69;5099651;28;20213;-72
2021/10/19 10:25:08;;;;;;;14.80;7.50;;;;;;;14.63;100.00;-19547.13;5099335;28;20171;-72
2021/10/19 10:27:35;;;;;;;14.83;7.77;;;;;;;14.69;100.00;-19548.44;5099323;28;20023;-72
2021/10/19 10:30:01;;;;;;;15.17;7.73;;;;;;;14.69;100.00;-19548.56;5087967;28;20032;-72
2021/10/19 10:32:35;;;;;;;15.67;7.90;;;;;;;14.72;100.00;-19549.34;5078798;28;20053;-72
2021/10/19 10:35:12;;;;;;;14.77;7.50;;;;;;;14.79;100.00;-19551.06;5091519;28;20476;-73
2021/10/19 10:37:48;;;;;;;15.53;7.67;;;;;;;15.00;100.00;-19556.56;5086841;28;20509;-72
2021/10/19 10:40:34;;;;;;;14.60;7.77;;;;;;;14.96;100.00;-19555.50;5097518;28;20426;-72
2021/10/19 10:43:40;;;;;;;12.83;6.83;;;;;;;14.94;100.00;-19555.13;5079018;28;20016;-71
2021/10/19 10:46:11;;;;;;;15.77;7.97;;;;;;;14.87;100.00;-19553.16;5025466;28;20310;-70
2021/10/19 10:48:37;;;;;;;16.20;7.70;;;;;;;14.81;100.00;-19551.59;5015853;28;20273;-70
2021/10/19 10:51:05;;;;;;;14.87;7.60;;;;;;;14.75;100.00;-19550.00;5033416;28;20383;-71
2021/10/19 10:53:41;;;;;;;16.00;7.70;;;;;;;14.76;100.00;-19550.41;5015489;28;20037;-70
2021/10/19 10:56:08;;;;;;;13.77;7.67;;;;;;;14.78;100.00;-19550.94;5035344;28;20025;-70
2021/10/19 10:58:36;;;;;;;13.33;6.87;;;;;;;14.82;100.00;-19551.97;5029687;28;20037;-70
2021/10/19 11:01:31;;;;;;;12.30;7.10;;;;;;;14.85;100.00;-19552.63;5035280;28;20045;-70
2021/10/19 11:04:08;;;;;;;14.77;6.97;;;;;;;14.86;100.00;-19552.88;4975719;28;20072;-70
2021/10/19 11:06:35;;;;;;;14.60;7.53;;;;;;;14.84;100.00;-19552.38;4976134;28;20277;-71
2021/10/19 11:09:15;;;;;;;14.27;6.90;;;;;;;14.75;100.00;-19550.00;4975463;28;20322;-71